Hauptseite
METAR-TAF:

METAR-TAF

Flughäfen :

Dakar, Senegal

Flughafen Dakar-Léopold Sédar Senghor

Breite: 14-44N, Länge: 017-30W, Höhe: 27 m

Beobachtung

Neuester Wetterbericht von vor 23 Minuten, um 05:00 UTC
Wind 11 kt aus Nord
Temperatur 18°C
Luftfeuchtigkeit 94%
Luftdruck 1012 hPa
Sichtweite 10 km oder mehr
keine Wolken unter 1500 m und keine Kumulonimbus oder Gewitterwolken

METAR: GOOY 260500Z 36011KT CAVOK 18/17 Q1012 NOSIG

Zeit: 05:23 (05:23 UTC)

Prognose

Neuester Wetterbericht von vor 5 Stunden und 53 Minuten, um 23:30 UTC
Gültige Prognose vom 26 um 00 UTC bis 27 um 06 UTC
Wind 14 kt aus Nord
Sichtweite 10 km oder mehr
keine Wolken unter 1500 m und keine Kumulonimbus oder Gewitterwolken

TAF: GOOY 252330Z 2600/2706 36014KT CAVOK

Wetterbeobachtungen und Prognosen von mehr als 4000 Flughäfen (METAR und TAF Bericht).

Die verfügbaren Stationen werden durch gelbe und rote Markierungen auf der Karte dargestellt.

Führen Sie die Maus auf sie, um den Namen der Station zu sehen.

Darauf klicken, um die Beobachtung von Wetterbeobachtungen und Prognosen zu sehen.

Um die Karte zu ändern : klicken Sie auf den grünen Tasten mit einem schwarzen Kreuz Zum Vergrößern, auf den grünen Button mit einem Gedankenstrich zu verkleinern, oder auf die grünen Pfeile für benachbarte Karten.


METAR-TAF: